Time;durP1;ratioP1;P1;durP2;ratioP2;P2;SDS_P1;SDS_P2;PMS_P1;PMS_P2;Temp;Humidity;BMP_temperature;BMP_pressure;BME280_temperature;BME280_humidity;BME280_pressure;Samples;Min_cycle;Max_cycle;Signal;HPM_P1;HPM_P2
2022/04/17 00:02:05;;;;;;;2.08;1.55;;;20.60;59.80;;;;;;5033916;28;20028;-67
2022/04/17 00:04:31;;;;;;;3.75;1.60;;;20.60;59.80;;;;;;5032732;28;20570;-67
2022/04/17 00:06:58;;;;;;;1.98;1.50;;;20.60;59.80;;;;;;5032644;28;20029;-67
2022/04/17 00:09:24;;;;;;;3.65;1.75;;;20.60;59.90;;;;;;5033838;28;20029;-67
2022/04/17 00:11:49;;;;;;;4.03;1.60;;;20.60;59.90;;;;;;5033894;28;20029;-67
2022/04/17 00:14:15;;;;;;;1.90;1.67;;;20.60;59.90;;;;;;5033914;28;20057;-67
2022/04/17 00:16:41;;;;;;;4.97;1.67;;;20.60;59.90;;;;;;5033991;28;20036;-67
2022/04/17 00:19:08;;;;;;;5.32;2.08;;;20.60;59.90;;;;;;5033573;28;20056;-67
2022/04/17 00:21:34;;;;;;;3.15;1.85;;;20.60;60.00;;;;;;5032097;28;20025;-67
2022/04/17 00:24:01;;;;;;;7.25;1.83;;;20.60;60.00;;;;;;5032562;28;20514;-67
2022/04/17 00:26:26;;;;;;;2.13;1.55;;;20.60;60.10;;;;;;5033554;28;20098;-67
2022/04/17 00:28:52;;;;;;;2.72;1.80;;;20.60;60.10;;;;;;5032207;28;20487;-66
2022/04/17 00:31:18;;;;;;;1.98;1.60;;;20.50;60.10;;;;;;5033496;28;20156;-67
2022/04/17 00:33:43;;;;;;;3.42;2.25;;;20.50;60.10;;;;;;5033258;28;20112;-66
2022/04/17 00:36:09;;;;;;;10.55;2.03;;;20.60;60.20;;;;;;5031924;28;20078;-66
2022/04/17 00:38:36;;;;;;;1.85;1.45;;;20.50;60.20;;;;;;5033055;28;20056;-66
2022/04/17 00:41:01;;;;;;;3.53;1.90;;;20.50;60.20;;;;;;5033256;28;20028;-67
2022/04/17 00:43:30;;;;;;;2.75;1.40;;;20.50;60.20;;;;;;5033321;28;20025;-66
2022/04/17 00:45:57;;;;;;;2.60;1.58;;;20.60;60.20;;;;;;5015723;28;20029;-66
2022/04/17 00:48:23;;;;;;;5.43;1.80;;;20.60;60.20;;;;;;5033152;28;20041;-67
2022/04/17 00:50:54;;;;;;;3.53;1.90;;;20.60;60.40;;;;;;5032807;28;20029;-67
2022/04/17 00:53:21;;;;;;;5.45;1.88;;;20.60;60.30;;;;;;5032037;28;20052;-66
2022/04/17 00:55:48;;;;;;;1.85;1.60;;;20.50;60.30;;;;;;5031750;28;20121;-67
2022/04/17 00:58:14;;;;;;;5.97;2.05;;;20.60;60.50;;;;;;5031790;28;20049;-67
2022/04/17 01:00:43;;;;;;;3.22;1.73;;;20.50;60.40;;;;;;5031737;28;20476;-67
2022/04/17 01:03:13;;;;;;;2.95;1.65;;;20.60;60.50;;;;;;5032541;28;20087;-67
2022/04/17 01:05:42;;;;;;;3.22;1.95;;;20.60;60.50;;;;;;5032356;28;20018;-67
2022/04/17 01:08:11;;;;;;;2.50;1.42;;;20.50;60.50;;;;;;5015718;28;20051;-67
2022/04/17 01:10:39;;;;;;;3.28;1.83;;;20.60;60.50;;;;;;5032793;28;20029;-67
2022/04/17 01:13:07;;;;;;;5.50;1.95;;;20.50;60.50;;;;;;5032603;28;20029;-66
2022/04/17 01:15:34;;;;;;;3.75;1.70;;;20.50;60.50;;;;;;5015467;28;20522;-67
2022/04/17 01:18:00;;;;;;;4.75;1.88;;;20.50;60.50;;;;;;5031460;28;20025;-67
2022/04/17 01:20:25;;;;;;;4.18;1.88;;;20.60;60.60;;;;;;5032392;28;20100;-67
2022/04/17 01:26:56;;;;;;;3.13;1.52;;;20.50;60.50;;;;;;5032960;28;20029;-67
2022/04/17 01:28:22;;;;;;;3.67;1.75;;;20.50;60.60;;;;;;5031706;28;20076;-67
2022/04/17 01:30:52;;;;;;;2.72;1.92;;;20.50;60.70;;;;;;5031161;28;20029;-67
2022/04/17 01:33:18;;;;;;;3.95;2.10;;;20.50;60.70;;;;;;5032319;28;20033;-67
2022/04/17 01:35:44;;;;;;;3.60;1.70;;;20.50;60.70;;;;;;5011220;28;20497;-67
2022/04/17 01:38:09;;;;;;;7.38;1.98;;;20.50;60.80;;;;;;5012448;28;20045;-66
2022/04/17 01:40:35;;;;;;;3.38;1.90;;;20.50;60.70;;;;;;5010748;28;20026;-67
2022/04/17 01:43:00;;;;;;;1.63;1.45;;;20.50;60.80;;;;;;5009653;28;20049;-66
2022/04/17 01:45:26;;;;;;;2.00;1.70;;;20.50;60.80;;;;;;5009740;28;20025;-66
2022/04/17 01:47:53;;;;;;;5.10;2.10;;;20.40;60.80;;;;;;5010003;28;20476;-67
2022/04/17 01:50:18;;;;;;;2.67;1.67;;;20.50;60.80;;;;;;5010515;28;20010;-66
2022/04/17 01:52:44;;;;;;;4.22;2.22;;;20.50;60.90;;;;;;5010177;28;20177;-66
2022/04/17 01:55:09;;;;;;;2.10;1.77;;;20.50;60.90;;;;;;5018147;28;20441;-66
2022/04/17 01:57:35;;;;;;;2.53;1.65;;;20.50;60.90;;;;;;5032008;28;20029;-66
2022/04/17 02:00:01;;;;;;;3.85;1.73;;;20.50;60.90;;;;;;5030735;28;20033;-66
2022/04/17 02:02:26;;;;;;;2.92;1.63;;;20.50;60.90;;;;;;5031968;28;20400;-66
2022/04/17 02:04:52;;;;;;;2.83;1.70;;;20.50;60.90;;;;;;5031959;28;20021;-67
2022/04/17 02:07:17;;;;;;;2.92;2.00;;;20.50;61.00;;;;;;5031152;28;20383;-66
2022/04/17 02:09:43;;;;;;;1.60;1.50;;;20.50;61.00;;;;;;5032001;28;20033;-66
2022/04/17 02:12:09;;;;;;;2.97;1.60;;;20.50;61.00;;;;;;5032245;28;20107;-67
2022/04/17 02:14:34;;;;;;;2.47;1.80;;;20.50;61.00;;;;;;5032172;28;20395;-66
2022/04/17 02:17:01;;;;;;;3.55;1.80;;;20.40;61.00;;;;;;5035671;28;20589;-66
2022/04/17 02:19:26;;;;;;;2.25;1.70;;;20.40;61.00;;;;;;5034934;28;20068;-67
2022/04/17 02:21:52;;;;;;;4.28;1.65;;;20.50;61.10;;;;;;5035621;28;20045;-67
2022/04/17 02:24:18;;;;;;;2.65;2.00;;;20.40;61.00;;;;;;5035974;28;20028;-66
2022/04/17 02:26:43;;;;;;;1.92;1.70;;;20.40;61.10;;;;;;5035833;28;20515;-67
2022/04/17 02:29:09;;;;;;;3.03;1.70;;;20.40;61.10;;;;;;5035773;28;20060;-66
2022/04/17 02:31:35;;;;;;;4.80;1.98;;;20.40;61.10;;;;;;5035675;28;20649;-66
2022/04/17 02:34:00;;;;;;;1.90;1.35;;;20.40;61.10;;;;;;5034426;28;20040;-67
2022/04/17 02:36:26;;;;;;;3.47;1.90;;;20.40;61.10;;;;;;5034269;28;20033;-67
2022/04/17 02:38:53;;;;;;;2.40;1.67;;;20.40;61.20;;;;;;5034221;28;20523;-67
2022/04/17 02:41:19;;;;;;;2.67;2.05;;;20.40;61.20;;;;;;5035709;28;20022;-67
2022/04/17 02:43:44;;;;;;;2.03;1.60;;;20.40;61.20;;;;;;5035519;28;20052;-67
2022/04/17 02:46:10;;;;;;;3.15;1.90;;;20.40;61.20;;;;;;5035232;28;20404;-67
2022/04/17 02:48:36;;;;;;;3.70;1.70;;;20.40;61.20;;;;;;5034312;28;20033;-67
2022/04/17 02:51:02;;;;;;;2.05;1.58;;;20.40;61.20;;;;;;5035206;28;20407;-67
2022/04/17 02:53:30;;;;;;;4.18;2.22;;;20.40;61.30;;;;;;5035428;28;20487;-67
2022/04/17 02:55:55;;;;;;;3.25;1.85;;;20.40;61.30;;;;;;5033980;28;20025;-66
2022/04/17 02:58:21;;;;;;;6.50;2.15;;;20.40;61.40;;;;;;5034067;28;20415;-66
2022/04/17 03:06:15;;;;;;;2.55;1.60;;;20.30;61.40;;;;;;5035179;28;20399;-66
2022/04/17 03:08:41;;;;;;;2.28;1.60;;;20.30;61.50;;;;;;5035205;28;20026;-67
2022/04/17 03:11:07;;;;;;;2.78;1.73;;;20.40;61.50;;;;;;5033567;28;20036;-67
2022/04/17 03:13:33;;;;;;;3.10;2.08;;;20.30;61.50;;;;;;5033793;28;20033;-67
2022/04/17 03:15:59;;;;;;;3.22;1.75;;;20.30;61.50;;;;;;5034472;28;20021;-66
2022/04/17 03:18:24;;;;;;;3.33;1.60;;;20.30;61.50;;;;;;5034820;28;20030;-67
2022/04/17 03:20:51;;;;;;;2.78;1.63;;;20.30;61.60;;;;;;5034739;28;20021;-66
2022/04/17 03:23:17;;;;;;;2.10;1.83;;;20.30;61.60;;;;;;5034822;28;20472;-67
2022/04/17 03:25:43;;;;;;;2.22;1.85;;;20.30;61.60;;;;;;5034627;28;20032;-67
2022/04/17 03:28:09;;;;;;;3.20;1.77;;;20.30;61.60;;;;;;5033914;28;20032;-66
2022/04/17 03:30:35;;;;;;;6.03;1.95;;;20.30;61.60;;;;;;5033308;28;20026;-67
2022/04/17 03:33:02;;;;;;;2.10;1.65;;;20.30;61.60;;;;;;5033290;28;20026;-67
2022/04/17 03:35:29;;;;;;;5.85;1.90;;;20.30;61.60;;;;;;5034376;28;20495;-67
2022/04/17 03:37:55;;;;;;;1.98;1.70;;;20.30;61.70;;;;;;5033150;28;20045;-66
2022/04/17 03:40:20;;;;;;;4.03;1.80;;;20.30;61.70;;;;;;5034400;28;20028;-66
2022/04/17 03:42:47;;;;;;;1.60;1.50;;;20.30;61.70;;;;;;5033315;28;20032;-67
2022/04/17 03:45:14;;;;;;;3.35;1.48;;;20.30;61.70;;;;;;5034283;28;20013;-66
2022/04/17 03:47:40;;;;;;;2.42;1.67;;;20.30;61.70;;;;;;5034355;28;20049;-67
2022/04/17 03:50:07;;;;;;;2.65;1.80;;;20.30;61.70;;;;;;5033025;28;20049;-66
2022/04/17 03:52:42;;;;;;;3.42;1.98;;;20.30;61.80;;;;;;5034390;28;20033;-66
2022/04/17 03:55:09;;;;;;;2.08;1.50;;;20.30;61.90;;;;;;5032784;28;20091;-66
2022/04/17 03:57:34;;;;;;;4.35;2.08;;;20.30;61.80;;;;;;5034076;28;20017;-66
2022/04/17 04:00:00;;;;;;;4.03;1.67;;;20.30;61.90;;;;;;5032556;28;20029;-66
2022/04/17 04:02:28;;;;;;;1.70;1.60;;;20.30;61.90;;;;;;5032911;28;20033;-66
2022/04/17 04:04:53;;;;;;;1.70;1.40;;;20.30;61.90;;;;;;5032698;28;20021;-66
2022/04/17 04:07:19;;;;;;;2.15;1.50;;;20.30;62.00;;;;;;5034126;28;20029;-66
2022/04/17 04:09:45;;;;;;;1.95;1.70;;;20.30;62.00;;;;;;5033971;28;20041;-66
2022/04/17 04:12:11;;;;;;;3.75;1.50;;;20.30;62.00;;;;;;5033717;28;20396;-66
2022/04/17 04:14:37;;;;;;;2.35;1.55;;;20.30;62.00;;;;;;5032767;28;20025;-66
2022/04/17 04:17:03;;;;;;;2.72;1.55;;;20.20;62.10;;;;;;5033765;28;20127;-66
2022/04/17 04:19:29;;;;;;;1.92;1.75;;;20.30;62.10;;;;;;5033596;28;20437;-66
2022/04/17 04:21:54;;;;;;;1.67;1.52;;;20.30;62.10;;;;;;5033621;28;20029;-66
2022/04/17 04:24:20;;;;;;;2.50;1.50;;;20.30;62.20;;;;;;5033649;28;20018;-66
2022/04/17 04:28:33;;;;;;;2.38;1.80;;;20.30;62.20;;;;;;5033666;28;20484;-67
2022/04/17 04:29:35;;;;;;;2.47;1.50;;;20.20;62.20;;;;;;5018563;28;20022;-66
2022/04/17 04:32:01;;;;;;;2.00;1.58;;;20.20;62.20;;;;;;5033596;28;20400;-67
2022/04/17 04:34:26;;;;;;;2.20;1.67;;;20.20;62.20;;;;;;5033225;28;20033;-66
2022/04/17 04:36:52;;;;;;;1.92;1.48;;;20.20;62.20;;;;;;5033100;28;20438;-66
2022/04/17 04:39:18;;;;;;;2.85;1.70;;;20.20;62.20;;;;;;5032460;28;20029;-67
2022/04/17 04:41:44;;;;;;;2.42;1.90;;;20.20;62.20;;;;;;5033363;28;20033;-66
2022/04/17 04:44:10;;;;;;;2.58;1.58;;;20.20;62.30;;;;;;5033098;28;20534;-67
2022/04/17 04:46:36;;;;;;;1.90;1.67;;;20.20;62.20;;;;;;5032184;28;20108;-67
2022/04/17 04:51:45;;;;;;;2.10;1.75;;;20.20;63.30;;;;;;5033020;28;20069;-67
2022/04/17 04:54:11;;;;;;;2.75;1.50;;;20.20;62.30;;;;;;5032871;28;20057;-67
2022/04/17 04:56:36;;;;;;;2.97;1.90;;;20.20;62.40;;;;;;5033362;28;20402;-66
2022/04/17 04:59:04;;;;;;;2.13;1.42;;;20.20;63.40;;;;;;5032823;28;20029;-67
2022/04/17 05:01:29;;;;;;;1.35;1.23;;;20.20;62.50;;;;;;5033025;28;20041;-67
2022/04/17 05:03:55;;;;;;;1.60;1.50;;;20.20;62.50;;;;;;5033021;28;20060;-67
2022/04/17 05:06:21;;;;;;;2.35;1.33;;;20.20;62.50;;;;;;5031609;28;20021;-67
2022/04/17 05:08:46;;;;;;;2.83;1.70;;;20.20;62.50;;;;;;5031782;28;20022;-67
2022/04/17 05:11:12;;;;;;;2.35;1.35;;;20.20;62.50;;;;;;5032506;28;20029;-67
2022/04/17 05:13:38;;;;;;;2.03;1.50;;;20.20;62.50;;;;;;5032820;28;20017;-67
2022/04/17 05:16:05;;;;;;;1.48;1.23;;;20.20;62.50;;;;;;5032806;28;20384;-67
2022/04/17 05:18:30;;;;;;;1.70;1.40;;;20.20;62.70;;;;;;5031368;28;20053;-67
2022/04/17 05:20:56;;;;;;;1.98;1.50;;;20.20;62.60;;;;;;5032605;28;20057;-67
2022/04/17 05:23:25;;;;;;;4.03;1.58;;;20.20;62.70;;;;;;5032784;28;20037;-66
2022/04/17 05:25:52;;;;;;;2.38;1.48;;;20.10;62.70;;;;;;5032338;28;20090;-66
2022/04/17 05:28:19;;;;;;;2.05;1.40;;;20.10;62.70;;;;;;5031160;28;20045;-66
2022/04/17 05:30:44;;;;;;;2.55;1.52;;;20.10;62.70;;;;;;5032464;28;20049;-66
2022/04/17 05:33:10;;;;;;;2.15;1.77;;;20.10;62.70;;;;;;5032513;28;20483;-66
2022/04/17 05:35:36;;;;;;;2.58;1.80;;;20.10;62.70;;;;;;5032314;28;20037;-67
2022/04/17 05:38:02;;;;;;;3.17;1.50;;;20.10;62.70;;;;;;5030983;28;20053;-66
2022/04/17 05:40:28;;;;;;;1.63;1.40;;;20.10;62.70;;;;;;5031039;28;20052;-66
2022/04/17 05:42:55;;;;;;;1.95;1.48;;;20.10;62.80;;;;;;5031226;28;20057;-66
2022/04/17 05:45:20;;;;;;;2.22;1.58;;;20.10;62.80;;;;;;5031266;28;20395;-66
2022/04/17 05:47:46;;;;;;;2.72;1.40;;;20.10;62.80;;;;;;5031162;28;20495;-66
2022/04/17 05:50:12;;;;;;;3.53;1.50;;;20.10;62.90;;;;;;5031796;28;20099;-67
2022/04/17 05:52:38;;;;;;;1.75;1.42;;;20.10;62.90;;;;;;5031344;28;20053;-67
2022/04/17 05:55:04;;;;;;;2.20;1.70;;;20.10;62.90;;;;;;5031724;28;20038;-67
2022/04/17 05:57:30;;;;;;;2.35;1.42;;;20.10;62.90;;;;;;5031083;28;20048;-67
2022/04/17 05:59:55;;;;;;;1.33;1.23;;;20.10;63.00;;;;;;5032065;28;20069;-67
2022/04/17 06:02:22;;;;;;;2.47;1.67;;;20.10;63.00;;;;;;5032146;28;20028;-66
2022/04/17 06:04:48;;;;;;;1.50;1.40;;;20.10;63.10;;;;;;5032083;28;20126;-66
2022/04/17 06:07:23;;;;;;;2.15;1.70;;;20.10;63.00;;;;;;5032013;28;20068;-66
2022/04/17 06:09:49;;;;;;;1.73;1.60;;;20.10;63.00;;;;;;5032049;28;20025;-66
2022/04/17 06:12:14;;;;;;;1.60;1.17;;;20.10;63.10;;;;;;5031960;28;20022;-67
2022/04/17 06:14:40;;;;;;;2.22;1.38;;;20.00;63.00;;;;;;5032199;28;20476;-66
2022/04/17 06:17:06;;;;;;;2.95;1.50;;;20.10;63.30;;;;;;5032029;28;20025;-66
2022/04/17 06:19:31;;;;;;;1.45;1.20;;;20.10;63.20;;;;;;5031930;28;20404;-66
2022/04/17 06:21:57;;;;;;;1.42;1.33;;;20.10;63.20;;;;;;5030776;28;20488;-67
2022/04/17 06:24:22;;;;;;;2.00;1.30;;;20.10;63.20;;;;;;5030664;28;20026;-66
2022/04/17 06:26:48;;;;;;;1.50;1.40;;;20.00;63.20;;;;;;5031936;28;20018;-66
2022/04/17 06:29:14;;;;;;;2.30;1.38;;;20.00;63.20;;;;;;5030845;28;20033;-66
2022/04/17 06:31:45;;;;;;;2.05;1.30;;;20.10;63.30;;;;;;5031972;28;20395;-66
2022/04/17 06:34:15;;;;;;;1.30;1.10;;;20.10;63.30;;;;;;5031828;28;20499;-66
2022/04/17 06:36:41;;;;;;;1.42;1.33;;;20.10;63.30;;;;;;5030704;28;20036;-66
2022/04/17 06:39:07;;;;;;;3.05;1.40;;;20.10;63.30;;;;;;5031430;28;20366;-66
2022/04/17 06:41:32;;;;;;;1.67;1.10;;;20.10;63.30;;;;;;5030578;28;20033;-66
2022/04/17 06:43:58;;;;;;;1.95;1.20;;;20.10;63.40;;;;;;5031972;28;20033;-66
2022/04/17 06:46:23;;;;;;;1.50;1.40;;;20.00;63.30;;;;;;5031642;28;20362;-66
2022/04/17 06:48:49;;;;;;;1.50;1.20;;;20.00;63.40;;;;;;5030446;28;20022;-67
2022/04/17 06:51:15;;;;;;;2.17;1.17;;;20.00;63.40;;;;;;5031631;28;20040;-66
2022/04/17 06:53:40;;;;;;;1.52;1.42;;;20.00;63.40;;;;;;5031549;28;20056;-67
2022/04/17 06:56:07;;;;;;;3.53;1.30;;;20.00;63.50;;;;;;5030340;28;20029;-66
2022/04/17 06:58:32;;;;;;;2.03;1.42;;;20.00;63.50;;;;;;5013967;28;20022;-66
2022/04/17 07:00:58;;;;;;;1.60;1.50;;;20.00;63.50;;;;;;5031449;28;20105;-66
2022/04/17 07:03:24;;;;;;;1.50;1.40;;;20.00;63.50;;;;;;5026134;28;20468;-66
2022/04/17 07:05:51;;;;;;;1.63;1.45;;;20.00;63.70;;;;;;5015320;28;20113;-67
2022/04/17 07:08:20;;;;;;;2.80;1.88;;;20.00;63.60;;;;;;5015301;28;20054;-66
2022/04/17 07:10:46;;;;;;;1.63;1.40;;;20.00;63.60;;;;;;5014460;28;20029;-66
2022/04/17 07:13:14;;;;;;;2.08;1.40;;;20.00;63.60;;;;;;5014281;28;20056;-66
2022/04/17 07:15:39;;;;;;;2.08;1.83;;;20.00;63.60;;;;;;5015623;28;20033;-66
2022/04/17 07:18:05;;;;;;;2.42;2.15;;;20.00;63.10;;;;;;5015644;28;20027;-66
2022/04/17 07:20:31;;;;;;;2.38;2.00;;;19.90;62.90;;;;;;5013953;28;20025;-66
2022/04/17 07:23:00;;;;;;;1.98;1.88;;;19.90;62.90;;;;;;5014940;28;20025;-66
2022/04/17 07:25:25;;;;;;;1.80;1.70;;;19.80;62.90;;;;;;5014105;28;20029;-66
2022/04/17 07:27:51;;;;;;;3.08;1.75;;;19.80;62.90;;;;;;5014937;28;20473;-65
2022/04/17 07:30:30;;;;;;;2.13;1.92;;;19.70;62.80;;;;;;5014733;28;20026;-66
2022/04/17 07:32:59;;;;;;;2.00;1.80;;;19.80;62.70;;;;;;5013986;28;20026;-66
2022/04/17 07:35:25;;;;;;;2.30;1.83;;;19.80;62.80;;;;;;5024418;28;20021;-66
2022/04/17 07:37:55;;;;;;;2.88;1.73;;;19.70;62.80;;;;;;5034520;28;20041;-66
2022/04/17 07:40:24;;;;;;;3.17;1.80;;;19.80;62.70;;;;;;5034998;28;20080;-66
2022/04/17 07:42:50;;;;;;;1.83;1.50;;;19.70;62.60;;;;;;5010704;28;20057;-66
2022/04/17 07:45:16;;;;;;;2.78;2.03;;;19.70;62.60;;;;;;5017933;28;20026;-67
2022/04/17 07:47:42;;;;;;;2.83;1.67;;;19.70;62.60;;;;;;5013417;28;20448;-66
2022/04/17 07:50:08;;;;;;;2.20;1.50;;;19.70;62.60;;;;;;5013450;28;20022;-66
2022/04/17 07:52:35;;;;;;;3.88;1.70;;;19.70;62.60;;;;;;5013271;28;20416;-66
2022/04/17 07:55:01;;;;;;;1.98;1.80;;;19.70;62.40;;;;;;5021355;28;20022;-66
2022/04/17 07:57:27;;;;;;;2.95;1.75;;;19.70;62.40;;;;;;5032985;28;20021;-66
2022/04/17 07:59:55;;;;;;;1.98;1.80;;;19.70;62.40;;;;;;5034098;28;20032;-66
2022/04/17 08:02:28;;;;;;;2.60;2.00;;;19.70;62.40;;;;;;5032856;28;20025;-66
2022/04/17 08:04:54;;;;;;;1.70;1.60;;;19.70;62.30;;;;;;5033945;28;20017;-66
2022/04/17 08:07:21;;;;;;;2.30;1.70;;;19.70;62.30;;;;;;5032815;28;20400;-66
2022/04/17 08:09:46;;;;;;;2.78;1.45;;;19.60;62.30;;;;;;5032747;28;20018;-66
2022/04/17 08:12:12;;;;;;;1.88;1.33;;;19.60;62.20;;;;;;5032805;28;20052;-66
2022/04/17 08:14:38;;;;;;;1.65;1.55;;;19.60;62.20;;;;;;5033930;28;20028;-66
2022/04/17 08:17:04;;;;;;;1.70;1.58;;;19.60;62.20;;;;;;5033812;28;20029;-66
2022/04/17 08:19:31;;;;;;;3.30;1.80;;;19.60;62.10;;;;;;5032106;28;20022;-66
2022/04/17 08:22:00;;;;;;;2.30;1.60;;;19.60;62.20;;;;;;5033755;28;20021;-66
2022/04/17 08:24:26;;;;;;;2.80;1.65;;;19.60;62.20;;;;;;5033781;28;20017;-66
2022/04/17 08:26:53;;;;;;;4.05;1.80;;;19.60;62.20;;;;;;5028255;28;20036;-67
2022/04/17 08:29:19;;;;;;;2.03;1.70;;;19.60;62.20;;;;;;5028416;28;20021;-67
2022/04/17 08:31:45;;;;;;;1.73;1.55;;;19.60;62.10;;;;;;5025660;28;20130;-67
2022/04/17 08:34:11;;;;;;;1.73;1.63;;;19.60;62.10;;;;;;5033038;28;20495;-67
2022/04/17 08:36:36;;;;;;;4.88;2.10;;;19.60;62.10;;;;;;5032312;28;20033;-67
2022/04/17 08:39:02;;;;;;;1.45;1.35;;;19.60;62.10;;;;;;5033550;28;20065;-67
2022/04/17 08:41:28;;;;;;;1.65;1.50;;;19.60;62.00;;;;;;5033826;28;20025;-67
2022/04/17 08:43:54;;;;;;;1.67;1.55;;;19.60;62.00;;;;;;5032731;28;20499;-67
2022/04/17 08:46:19;;;;;;;2.15;1.70;;;19.60;62.00;;;;;;5033602;28;20033;-67
2022/04/17 08:48:47;;;;;;;1.40;1.30;;;19.60;62.00;;;;;;5032780;28;20025;-67
2022/04/17 08:51:12;;;;;;;1.45;1.35;;;19.50;61.90;;;;;;5033434;28;20021;-67
2022/04/17 08:53:38;;;;;;;1.60;1.48;;;19.60;62.00;;;;;;5015694;28;20033;-66
2022/04/17 08:56:04;;;;;;;1.40;1.30;;;19.60;62.00;;;;;;5031937;28;20034;-67
2022/04/17 08:58:30;;;;;;;1.73;1.63;;;19.60;62.00;;;;;;5031638;28;20037;-67
2022/04/17 09:00:56;;;;;;;1.88;1.25;;;19.50;61.90;;;;;;5031955;28;20018;-67
2022/04/17 09:03:23;;;;;;;1.85;1.67;;;19.50;61.90;;;;;;5031690;28;20018;-67
2022/04/17 09:05:48;;;;;;;2.10;1.90;;;19.60;62.00;;;;;;5033156;28;20500;-67
2022/04/17 09:08:18;;;;;;;1.60;1.50;;;19.50;61.90;;;;;;5033296;28;20139;-67
2022/04/17 09:10:57;;;;;;;2.50;1.48;;;19.50;61.90;;;;;;5033268;28;20025;-67
2022/04/17 09:13:33;;;;;;;1.60;1.50;;;19.50;61.80;;;;;;5031797;28;20061;-67
2022/04/17 09:16:02;;;;;;;1.63;1.45;;;19.50;61.90;;;;;;5031896;28;20026;-67
2022/04/17 09:18:29;;;;;;;1.75;1.50;;;19.50;61.90;;;;;;5031408;28;20228;-67
2022/04/17 09:20:56;;;;;;;2.55;1.50;;;19.50;62.50;;;;;;5030366;28;20029;-67
2022/04/17 09:23:38;;;;;;;1.45;1.30;;;19.50;61.90;;;;;;5031455;28;20018;-67
2022/04/17 09:26:05;;;;;;;1.55;1.33;;;19.50;61.70;;;;;;5032452;28;20017;-67
2022/04/17 09:28:33;;;;;;;2.95;1.30;;;19.50;61.90;;;;;;5015135;28;20025;-67
2022/04/17 09:31:01;;;;;;;4.15;1.45;;;19.50;61.90;;;;;;5031428;28;20079;-67
2022/04/17 09:33:35;;;;;;;1.50;1.40;;;19.50;61.90;;;;;;5015354;28;20484;-67
2022/04/17 09:36:00;;;;;;;1.33;1.23;;;19.50;61.80;;;;;;5031401;28;20033;-67
2022/04/17 09:38:30;;;;;;;1.40;1.30;;;19.50;61.90;;;;;;5031097;28;20041;-67
2022/04/17 09:41:06;;;;;;;1.48;1.38;;;19.50;61.90;;;;;;5032788;28;20480;-67
2022/04/17 09:43:37;;;;;;;2.25;1.30;;;19.50;61.80;;;;;;5031200;28;20151;-67
2022/04/17 09:46:09;;;;;;;2.05;1.88;;;19.40;61.80;;;;;;5031673;28;20032;-67
2022/04/17 09:48:44;;;;;;;1.50;1.40;;;19.40;61.90;;;;;;5032171;28;20029;-68
2022/04/17 09:51:22;;;;;;;8.65;1.60;;;19.50;61.90;;;;;;5031001;28;20803;-69
2022/04/17 09:54:06;;;;;;;3.33;1.73;;;19.50;61.90;;;;;;5031005;28;20109;-69
2022/04/17 09:56:37;;;;;;;1.35;1.25;;;19.40;61.90;;;;;;5032157;28;20075;-69
2022/04/17 09:59:19;;;;;;;2.53;1.55;;;19.40;61.80;;;;;;5030822;28;20025;-68
2022/04/17 10:01:52;;;;;;;2.60;1.50;;;19.50;61.90;;;;;;5014608;28;20026;-69
2022/04/17 10:04:22;;;;;;;1.73;1.63;;;19.40;61.90;;;;;;5015523;28;20072;-68
2022/04/17 10:06:52;;;;;;;1.55;1.45;;;19.40;62.00;;;;;;5032147;28;20028;-68
2022/04/17 10:09:18;;;;;;;1.60;1.50;;;19.50;62.00;;;;;;5015070;28;20045;-69
2022/04/17 10:11:43;;;;;;;2.10;2.00;;;19.50;62.00;;;;;;5032063;28;20480;-69
2022/04/17 10:14:09;;;;;;;1.70;1.60;;;19.50;62.00;;;;;;5030840;28;20029;-69
2022/04/17 10:16:35;;;;;;;2.63;1.70;;;19.50;62.00;;;;;;5031980;28;20030;-69
2022/04/17 10:19:11;;;;;;;2.00;1.90;;;19.50;62.00;;;;;;5030799;28;20121;-69
2022/04/17 10:21:36;;;;;;;1.70;1.60;;;19.60;62.10;;;;;;5030578;28;20022;-69
2022/04/17 10:24:03;;;;;;;2.65;1.80;;;19.50;62.10;;;;;;5014399;28;20101;-69
2022/04/17 10:26:38;;;;;;;1.80;1.70;;;19.50;62.10;;;;;;5030609;28;20511;-71
2022/04/17 10:29:05;;;;;;;1.83;1.73;;;19.50;62.10;;;;;;5030632;28;20033;-70
2022/04/17 10:31:43;;;;;;;2.03;1.83;;;19.60;62.20;;;;;;5030465;28;20017;-70
2022/04/17 10:34:22;;;;;;;2.08;1.80;;;19.60;62.30;;;;;;5030600;28;20048;-70
2022/04/17 10:36:57;;;;;;;2.95;1.90;;;19.60;62.40;;;;;;5032082;28;20029;-70
2022/04/17 10:39:38;;;;;;;2.45;1.90;;;19.60;62.40;;;;;;5035679;28;20033;-69
2022/04/17 10:42:07;;;;;;;1.80;1.70;;;19.60;62.40;;;;;;5034487;28;20118;-71
2022/04/17 10:44:37;;;;;;;1.70;1.60;;;19.60;62.50;;;;;;5034053;28;20423;-71
2022/04/17 10:47:04;;;;;;;2.13;1.83;;;19.60;62.50;;;;;;5035414;28;20028;-71
2022/04/17 10:49:30;;;;;;;1.83;1.73;;;19.60;62.50;;;;;;5034314;28;20036;-71
2022/04/17 10:51:57;;;;;;;4.15;2.25;;;19.70;62.60;;;;;;5035567;28;20025;-71
2022/04/17 10:54:24;;;;;;;2.17;1.98;;;19.70;62.60;;;;;;5035111;28;20065;-69
2022/04/17 10:56:56;;;;;;;1.73;1.63;;;19.70;62.70;;;;;;5034389;28;20049;-70
2022/04/17 10:59:31;;;;;;;3.50;2.03;;;19.70;62.70;;;;;;5035277;28;20029;-69
2022/04/17 11:02:03;;;;;;;1.98;1.88;;;19.70;62.70;;;;;;5034129;28;20060;-72
2022/04/17 11:04:41;;;;;;;2.10;2.00;;;19.70;62.70;;;;;;5035088;28;20408;-71
2022/04/17 11:07:07;;;;;;;1.98;1.88;;;19.70;62.80;;;;;;5035214;28;20037;-70
2022/04/17 11:09:33;;;;;;;2.00;1.90;;;19.70;62.80;;;;;;5034861;28;20165;-70
2022/04/17 11:12:29;;;;;;;10.20;2.20;;;19.80;62.80;;;;;;5034103;28;20499;-71
2022/04/17 11:15:15;;;;;;;1.80;1.70;;;19.70;63.00;;;;;;5029170;28;20065;-71
2022/04/17 11:17:41;;;;;;;2.00;1.80;;;19.80;63.10;;;;;;5034156;28;20045;-71
2022/04/17 11:20:07;;;;;;;1.80;1.70;;;19.70;63.00;;;;;;5033720;28;20578;-69
2022/04/17 11:22:36;;;;;;;1.80;1.70;;;19.70;63.00;;;;;;5033599;28;20061;-67
2022/04/17 11:25:12;;;;;;;2.22;2.00;;;19.80;63.10;;;;;;5033925;28;20021;-68
2022/04/17 11:27:50;;;;;;;2.40;2.00;;;19.80;63.10;;;;;;5034071;28;20084;-69
2022/04/17 11:30:15;;;;;;;1.92;1.83;;;19.80;63.10;;;;;;5034980;28;20025;-68
2022/04/17 11:32:41;;;;;;;2.10;1.90;;;19.80;63.20;;;;;;5034964;28;20036;-68
2022/04/17 11:35:12;;;;;;;2.70;1.70;;;19.80;63.20;;;;;;5034630;28;20121;-68
2022/04/17 11:37:38;;;;;;;1.85;1.75;;;19.90;63.30;;;;;;5016930;28;20045;-68
2022/04/17 11:40:15;;;;;;;2.72;1.98;;;19.90;63.30;;;;;;5033689;28;20029;-67
2022/04/17 11:42:43;;;;;;;1.77;1.67;;;19.90;63.40;;;;;;5033648;28;20027;-68
2022/04/17 11:45:09;;;;;;;2.10;1.90;;;19.90;63.30;;;;;;5033563;28;20021;-69
2022/04/17 11:47:42;;;;;;;1.83;1.73;;;19.90;63.30;;;;;;5033157;28;20025;-68
2022/04/17 11:50:09;;;;;;;;;;;19.90;63.30;;;;;;5033979;28;20361;-68
2022/04/17 11:52:34;;;;;;;1.80;1.70;;;19.90;63.70;;;;;;5034824;28;19905;-69
2022/04/17 11:55:00;;;;;;;1.88;1.77;;;19.90;63.70;;;;;;5033395;28;20037;-68
2022/04/17 11:57:26;;;;;;;1.90;1.65;;;19.90;63.70;;;;;;5017099;28;20026;-68
2022/04/17 11:59:56;;;;;;;2.00;1.90;;;19.90;63.60;;;;;;5034462;28;20029;-68
2022/04/17 12:02:22;;;;;;;2.15;1.95;;;20.00;63.70;;;;;;5034611;28;20028;-68
2022/04/17 12:04:49;;;;;;;1.65;1.55;;;20.00;63.70;;;;;;5034335;28;20026;-67
2022/04/17 12:07:21;;;;;;;2.08;1.98;;;20.00;63.70;;;;;;5033518;28;20014;-67
2022/04/17 12:09:47;;;;;;;;;;;20.00;63.70;;;;;;5034797;28;20029;-68
2022/04/17 12:12:13;;;;;;;2.08;1.88;;;20.00;64.00;;;;;;5034372;28;19905;-68
2022/04/17 12:14:42;;;;;;;1.80;1.70;;;20.00;64.00;;;;;;5016778;28;20029;-67
2022/04/17 12:17:08;;;;;;;2.33;1.90;;;20.00;64.00;;;;;;5030473;28;20045;-67
2022/04/17 12:19:33;;;;;;;1.90;1.80;;;20.00;63.90;;;;;;5016509;28;20032;-67
2022/04/17 12:21:59;;;;;;;2.28;1.83;;;20.00;63.90;;;;;;5034155;28;20026;-68
2022/04/17 12:24:27;;;;;;;1.92;1.80;;;20.10;63.90;;;;;;5032671;28;20032;-67
2022/04/17 12:26:53;;;;;;;1.77;1.67;;;20.10;63.90;;;;;;5034078;28;20105;-68
2022/04/17 12:29:19;;;;;;;2.17;1.98;;;20.10;64.00;;;;;;5033004;28;20100;-68
2022/04/17 12:31:45;;;;;;;3.10;2.17;;;20.10;64.00;;;;;;5032920;28;20029;-69
2022/04/17 12:34:12;;;;;;;1.75;1.60;;;20.10;64.00;;;;;;5032841;28;20109;-70
2022/04/17 12:36:38;;;;;;;2.88;2.20;;;20.20;64.00;;;;;;5032523;28;20496;-69
2022/04/17 12:39:04;;;;;;;2.20;2.00;;;20.20;64.10;;;;;;5032603;28;20036;-67
2022/04/17 12:41:40;;;;;;;1.77;1.67;;;20.20;64.10;;;;;;5032624;28;20500;-69
2022/04/17 12:44:07;;;;;;;1.90;1.80;;;20.30;64.20;;;;;;5025119;28;20018;-70
2022/04/17 12:46:33;;;;;;;3.00;2.30;;;20.20;64.20;;;;;;5014087;28;20022;-69
2022/04/17 12:49:18;;;;;;;2.20;2.00;;;20.30;64.20;;;;;;5014294;28;20026;-69
2022/04/17 12:51:54;;;;;;;2.22;1.60;;;20.30;64.20;;;;;;5012839;28;20034;-67
2022/04/17 12:54:20;;;;;;;2.00;1.90;;;20.30;64.20;;;;;;5014199;28;20025;-67
2022/04/17 12:56:47;;;;;;;1.90;1.80;;;20.30;64.20;;;;;;5033404;28;20033;-67
2022/04/17 12:59:18;;;;;;;1.98;1.88;;;20.30;64.20;;;;;;5031862;28;20034;-69
2022/04/17 13:01:47;;;;;;;1.90;1.80;;;20.30;64.30;;;;;;5031846;28;20499;-67